Terminal Aerodrome Forecast
Issued by NWS

Home | Current Version | Previous Version | Text Only | Print | Product List | Glossary On
Versions: 1 2 3 4 5 6 7 8 9 10 11 12 13 14 15 16
000
FTUS46 KSEW 022330
TAFHQM
TAF
KHQM 022330Z 0300/0324 22015KT 6SM HZ BKN160 BKN250
     FM030900 25005KT 4SM BR OVC006
     FM031900 24013G20KT P6SM BKN012
      TEMPO 0322/0324 SCT012=

USA.gov is the U.S. government's official web portal to all federal, state and local government web resources and services.